createdAt,value
2018-11-02T00:00:19.581Z,11.64
2018-11-02T00:02:58.279Z,11.67
2018-11-02T00:05:27.250Z,11.64
2018-11-02T00:07:58.232Z,11.67
2018-11-02T00:10:29.321Z,11.71
2018-11-02T00:13:02.469Z,11.66
2018-11-02T00:15:45.211Z,11.64
2018-11-02T00:18:26.198Z,11.66
2018-11-02T00:21:13.815Z,11.69
2018-11-02T00:23:54.680Z,11.70
2018-11-02T00:26:37.453Z,11.67
2018-11-02T00:29:12.900Z,11.70
2018-11-02T00:34:40.017Z,11.58
2018-11-02T00:40:09.108Z,11.64
2018-11-02T00:42:44.180Z,11.60
2018-11-02T00:45:14.133Z,11.69
2018-11-02T00:47:45.092Z,11.66
2018-11-02T00:50:17.296Z,11.68
2018-11-02T00:52:47.440Z,11.77
2018-11-02T00:55:18.407Z,11.75
2018-11-02T00:57:53.034Z,11.83
2018-11-02T01:00:38.968Z,11.78
2018-11-02T01:03:30.804Z,11.81
2018-11-02T01:05:59.675Z,11.72
2018-11-02T01:08:28.548Z,11.71
2018-11-02T01:10:57.421Z,11.61
2018-11-02T01:13:30.100Z,11.59
2018-11-02T01:16:02.797Z,11.60
2018-11-02T01:18:46.168Z,11.60
2018-11-02T01:27:01.523Z,11.67
2018-11-02T01:29:41.080Z,11.61
2018-11-02T01:32:32.275Z,11.63
2018-11-02T01:35:01.157Z,11.65
2018-11-02T01:37:30.048Z,11.56
2018-11-02T01:39:58.935Z,11.57
2018-11-02T01:42:28.085Z,11.61
2018-11-02T01:44:56.974Z,11.62
2018-11-02T01:47:39.754Z,11.65
2018-11-02T01:50:16.621Z,11.63
2018-11-02T01:52:50.114Z,11.59
2018-11-02T01:55:19.018Z,11.63
2018-11-02T01:57:47.872Z,11.69
2018-11-02T02:03:16.014Z,11.62
2018-11-02T02:05:56.145Z,11.67
2018-11-02T02:08:28.605Z,11.71
2018-11-02T02:10:57.480Z,11.73
2018-11-02T02:13:26.347Z,11.65
2018-11-02T02:15:55.176Z,11.69
2018-11-02T02:18:24.353Z,11.67
2018-11-02T02:20:53.223Z,11.62
2018-11-02T02:23:22.108Z,11.62
2018-11-02T02:25:57.329Z,11.70
2018-11-02T02:28:26.227Z,11.63
2018-11-02T02:30:55.107Z,11.65
2018-11-02T02:33:24.058Z,11.71
2018-11-02T02:35:52.955Z,11.65
2018-11-02T02:38:35.148Z,11.63
2018-11-02T02:41:11.376Z,11.76
2018-11-02T02:43:48.423Z,11.70
2018-11-02T02:46:19.387Z,11.65
2018-11-02T02:48:54.723Z,11.64
2018-11-02T02:51:23.611Z,11.63
2018-11-02T02:56:58.163Z,11.55
2018-11-02T02:59:27.005Z,11.58
2018-11-02T03:01:55.906Z,11.61
2018-11-02T03:04:24.756Z,11.75
2018-11-02T03:06:53.608Z,11.64
2018-11-02T03:09:22.712Z,11.57
2018-11-02T03:11:51.577Z,11.58
2018-11-02T03:14:39.889Z,11.54
2018-11-02T03:17:08.802Z,11.61
2018-11-02T03:19:37.694Z,11.59
2018-11-02T03:22:13.781Z,11.59
2018-11-02T03:24:53.760Z,11.56
2018-11-02T03:27:24.630Z,11.46
2018-11-02T03:29:53.519Z,11.45
2018-11-02T03:32:22.423Z,11.58
2018-11-02T03:34:51.304Z,11.45
2018-11-02T03:37:20.227Z,11.33
2018-11-02T03:39:49.596Z,11.46
2018-11-02T03:42:18.476Z,11.45
2018-11-02T03:44:47.376Z,11.38
2018-11-02T03:47:27.997Z,11.36
2018-11-02T03:50:15.290Z,11.29
2018-11-02T03:55:54.647Z,11.32
2018-11-02T03:58:24.069Z,11.35
2018-11-02T04:00:53.650Z,11.35
2018-11-02T04:03:22.968Z,11.32
2018-11-02T04:05:59.343Z,11.23
2018-11-02T04:08:46.337Z,11.38
2018-11-02T04:11:15.728Z,11.37
2018-11-02T04:13:45.329Z,11.28
2018-11-02T04:16:26.447Z,11.29
2018-11-02T04:18:56.879Z,11.31
2018-11-02T04:24:20.880Z,11.35
2018-11-02T04:26:50.054Z,11.47
2018-11-02T04:29:19.267Z,11.39
2018-11-02T04:31:53.925Z,11.18
2018-11-02T04:34:41.585Z,11.16
2018-11-02T04:37:11.044Z,11.24
2018-11-02T04:39:41.995Z,11.28
2018-11-02T04:42:30.900Z,11.27
2018-11-02T04:45:18.548Z,11.19
2018-11-02T04:47:51.920Z,11.05
2018-11-02T04:50:20.821Z,10.99
2018-11-02T04:53:05.666Z,10.87
2018-11-02T04:55:38.504Z,10.99
2018-11-02T04:58:10.948Z,10.98
2018-11-02T05:00:53.554Z,10.97
2018-11-02T05:03:32.804Z,10.87
2018-11-02T05:06:01.720Z,10.94
2018-11-02T05:08:34.238Z,10.98
2018-11-02T05:11:03.163Z,10.89
2018-11-02T05:13:36.544Z,10.94
2018-11-02T05:16:06.341Z,11.06
2018-11-02T05:18:47.059Z,10.97
2018-11-02T05:21:16.035Z,10.94
2018-11-02T05:23:45.954Z,10.75
2018-11-02T05:26:14.940Z,10.92
2018-11-02T05:28:43.959Z,10.93
2018-11-02T05:31:12.928Z,10.69
2018-11-02T05:33:42.151Z,10.81
2018-11-02T05:36:11.036Z,10.87
2018-11-02T05:38:39.911Z,10.86
2018-11-02T05:41:22.701Z,10.76
2018-11-02T05:43:51.598Z,10.74
2018-11-02T05:46:20.489Z,11.17
2018-11-02T05:48:49.470Z,11.04
2018-11-02T05:51:18.327Z,11.18
2018-11-02T05:53:47.227Z,10.93
2018-11-02T05:56:16.080Z,10.95
2018-11-02T05:58:44.991Z,10.88
2018-11-02T06:01:17.820Z,10.96
2018-11-02T06:07:00.537Z,10.87
2018-11-02T06:09:42.684Z,10.97
2018-11-02T06:12:21.292Z,11.01
2018-11-02T06:14:55.767Z,10.95
2018-11-02T06:17:24.682Z,11.00
2018-11-02T06:22:54.271Z,11.07
2018-11-02T06:25:24.295Z,11.05
2018-11-02T06:28:05.127Z,11.04
2018-11-02T06:30:35.241Z,11.19
2018-11-02T06:33:21.317Z,11.08
2018-11-02T06:35:50.226Z,11.17
2018-11-02T06:38:30.561Z,11.13
2018-11-02T06:41:01.406Z,11.00
2018-11-02T06:43:30.309Z,10.92
2018-11-02T06:46:17.308Z,10.99
2018-11-02T06:51:47.458Z,10.97
2018-11-02T06:54:17.360Z,11.00
2018-11-02T06:56:56.546Z,10.98
2018-11-02T06:59:35.421Z,10.91
2018-11-02T07:04:57.789Z,10.97
2018-11-02T07:07:26.785Z,11.01
2018-11-02T07:09:59.994Z,10.95
2018-11-02T07:12:28.976Z,10.91
2018-11-02T07:15:04.292Z,10.85
2018-11-02T07:17:35.340Z,10.83
2018-11-02T07:20:09.057Z,10.96
2018-11-02T07:22:56.969Z,10.84
2018-11-02T07:25:26.258Z,10.94
2018-11-02T07:30:58.728Z,10.82
2018-11-02T07:33:28.705Z,10.94
2018-11-02T07:36:05.438Z,10.93
2018-11-02T07:38:34.420Z,11.03
2018-11-02T07:41:26.416Z,11.11
2018-11-02T07:43:55.319Z,11.12
2018-11-02T07:46:35.461Z,10.94
2018-11-02T07:49:05.491Z,11.05
2018-11-02T07:51:34.452Z,11.17
2018-11-02T07:54:03.315Z,11.01
2018-11-02T07:56:32.232Z,11.01
2018-11-02T07:59:14.849Z,10.86
2018-11-02T08:01:43.847Z,10.74
2018-11-02T08:04:12.746Z,10.78
2018-11-02T08:06:41.667Z,11.02
2018-11-02T08:09:13.181Z,11.03
2018-11-02T08:12:05.000Z,10.82
2018-11-02T08:14:37.211Z,10.83
2018-11-02T08:17:06.207Z,10.79
2018-11-02T08:19:35.091Z,10.63
2018-11-02T08:22:04.034Z,10.78
2018-11-02T08:24:36.915Z,11.00
2018-11-02T08:27:08.907Z,10.74
2018-11-02T08:29:37.794Z,10.92
2018-11-02T08:32:16.534Z,11.08
2018-11-02T08:34:58.932Z,10.92
2018-11-02T08:37:27.830Z,11.03
2018-11-02T08:42:51.474Z,11.20
2018-11-02T08:45:20.440Z,11.19
2018-11-02T08:47:49.512Z,11.14
2018-11-02T08:50:19.520Z,11.18
2018-11-02T08:52:48.469Z,11.17
2018-11-02T08:55:21.109Z,11.42
2018-11-02T08:57:54.535Z,11.52
2018-11-02T09:00:30.877Z,11.29
2018-11-02T09:03:09.565Z,11.46
2018-11-02T09:08:34.393Z,11.34
2018-11-02T09:11:13.836Z,11.62
2018-11-02T09:13:53.568Z,11.77
2018-11-02T09:16:27.081Z,11.74
2018-11-02T09:19:02.332Z,11.80
2018-11-02T09:21:37.206Z,11.82
2018-11-02T09:24:06.719Z,11.79
2018-11-02T09:26:37.684Z,11.58
2018-11-02T09:29:08.681Z,11.65
2018-11-02T09:31:37.638Z,11.86
2018-11-02T09:34:06.764Z,11.80
2018-11-02T09:36:40.269Z,11.97
2018-11-02T09:39:13.901Z,11.92
2018-11-02T09:41:58.990Z,11.60
2018-11-02T09:44:36.010Z,11.83
2018-11-02T09:47:08.080Z,11.48
2018-11-02T09:49:37.023Z,11.67
2018-11-02T09:52:06.107Z,11.75
2018-11-02T09:54:37.002Z,11.69
2018-11-02T09:57:09.024Z,11.91
2018-11-02T09:59:37.928Z,12.23
2018-11-02T10:02:11.376Z,12.26
2018-11-02T10:04:47.128Z,11.84
2018-11-02T10:07:28.329Z,11.79
2018-11-02T10:10:02.453Z,11.67
2018-11-02T10:12:39.278Z,11.88
2018-11-02T10:15:24.692Z,12.12
2018-11-02T10:20:59.336Z,11.97
2018-11-02T10:23:38.820Z,11.87
2018-11-02T10:26:11.685Z,11.85
2018-11-02T10:28:42.648Z,12.32
2018-11-02T10:31:16.928Z,12.23
2018-11-02T10:33:45.825Z,11.76
2018-11-02T10:36:14.711Z,12.12
2018-11-02T10:38:48.557Z,12.26
2018-11-02T10:41:26.141Z,12.22
2018-11-02T10:43:57.058Z,12.16
2018-11-02T10:46:30.592Z,12.24
2018-11-02T10:49:01.572Z,12.22
2018-11-02T10:51:32.572Z,12.17
2018-11-02T10:54:05.350Z,11.94
2018-11-02T10:56:44.481Z,12.18
2018-11-02T10:59:25.043Z,12.18
2018-11-02T11:01:59.244Z,12.08
2018-11-02T11:04:30.206Z,12.20
2018-11-02T11:07:00.200Z,12.32
2018-11-02T11:09:30.117Z,12.48
2018-11-02T11:12:02.815Z,12.41
2018-11-02T11:14:31.976Z,12.51
2018-11-02T11:17:01.000Z,12.55
2018-11-02T11:19:30.884Z,12.57
2018-11-02T11:21:59.792Z,12.36
2018-11-02T11:24:51.180Z,12.27
2018-11-02T11:27:26.446Z,12.32
2018-11-02T11:29:58.577Z,12.28
2018-11-02T11:32:27.491Z,12.25
2018-11-02T11:34:56.406Z,12.66
2018-11-02T11:37:25.306Z,12.50
2018-11-02T11:39:54.727Z,12.69
2018-11-02T11:42:24.063Z,12.55
2018-11-02T11:44:56.652Z,12.74
2018-11-02T11:47:30.909Z,12.77
2018-11-02T11:50:00.001Z,12.79
2018-11-02T11:52:29.509Z,12.79
2018-11-02T11:54:59.714Z,12.45
2018-11-02T11:57:30.057Z,12.44
2018-11-02T12:00:00.358Z,12.68
2018-11-02T12:02:29.932Z,12.71
2018-11-02T12:04:59.310Z,12.66
2018-11-02T12:07:28.672Z,12.50
2018-11-02T12:09:58.381Z,12.22
2018-11-02T12:12:28.309Z,12.32
2018-11-02T12:14:57.736Z,12.65
2018-11-02T12:17:27.720Z,12.99
2018-11-02T12:19:57.008Z,13.21
2018-11-02T12:22:26.389Z,13.33
2018-11-02T12:24:55.733Z,13.18
2018-11-02T12:27:25.231Z,13.22
2018-11-02T12:29:56.736Z,13.33
2018-11-02T12:32:26.273Z,12.89
2018-11-02T12:35:14.224Z,12.47
2018-11-02T12:37:49.148Z,12.61
2018-11-02T12:40:21.605Z,12.62
2018-11-02T12:42:51.602Z,12.65
2018-11-02T12:45:33.476Z,12.96
2018-11-02T12:48:25.892Z,13.28
2018-11-02T12:50:56.846Z,13.39
2018-11-02T12:53:33.504Z,13.31
2018-11-02T12:56:15.086Z,13.09
2018-11-02T12:58:49.977Z,12.89
2018-11-02T13:01:24.531Z,12.79
2018-11-02T13:04:13.361Z,12.98
2018-11-02T13:06:42.756Z,13.01
2018-11-02T13:09:12.045Z,12.90
2018-11-02T13:11:46.623Z,12.56
2018-11-02T13:14:22.044Z,12.49
2018-11-02T13:17:01.579Z,12.45
2018-11-02T13:19:32.872Z,12.77
2018-11-02T13:22:02.613Z,12.66
2018-11-02T13:24:32.940Z,12.85
2018-11-02T13:27:04.523Z,12.92
2018-11-02T13:29:33.580Z,12.82
2018-11-02T13:32:02.645Z,12.75
2018-11-02T13:34:34.697Z,12.79
2018-11-02T13:37:03.655Z,12.81
2018-11-02T13:39:32.487Z,12.87
2018-11-02T13:42:01.945Z,12.73
2018-11-02T13:44:31.409Z,12.67
2018-11-02T13:47:22.743Z,12.48
2018-11-02T13:49:55.793Z,12.29
2018-11-02T13:52:25.230Z,12.54
2018-11-02T13:54:54.792Z,12.61
2018-11-02T13:57:25.201Z,12.73
2018-11-02T13:59:54.533Z,12.72
2018-11-02T14:02:25.953Z,12.68
2018-11-02T14:05:05.720Z,12.57
2018-11-02T14:07:36.250Z,12.55
2018-11-02T14:10:12.051Z,12.65
2018-11-02T14:12:52.338Z,12.58
2018-11-02T14:15:32.652Z,12.67
2018-11-02T14:18:02.597Z,12.73
2018-11-02T14:20:41.041Z,12.73
2018-11-02T14:23:09.988Z,12.69
2018-11-02T14:25:51.721Z,12.53
2018-11-02T14:28:24.522Z,12.36
2018-11-02T14:30:55.471Z,12.39
2018-11-02T14:33:25.386Z,12.47
2018-11-02T14:35:54.292Z,12.58
2018-11-02T14:38:24.353Z,12.65
2018-11-02T14:40:57.520Z,12.57
2018-11-02T14:43:26.713Z,12.45
2018-11-02T14:45:57.889Z,12.51
2018-11-02T14:48:28.337Z,12.59
2018-11-02T14:51:02.067Z,12.57
2018-11-02T14:53:36.736Z,12.50
2018-11-02T14:56:22.672Z,12.68
2018-11-02T14:58:57.448Z,12.65
2018-11-02T15:01:27.088Z,12.44
2018-11-02T15:04:01.341Z,12.61
2018-11-02T15:06:32.710Z,12.54
2018-11-02T15:09:09.497Z,12.56
2018-11-02T15:11:38.507Z,12.60
2018-11-02T15:14:11.189Z,12.43
2018-11-02T15:16:40.153Z,12.46
2018-11-02T15:19:13.921Z,12.54
2018-11-02T15:21:43.842Z,12.61
2018-11-02T15:24:18.921Z,12.66
2018-11-02T15:26:56.632Z,12.61
2018-11-02T15:29:33.829Z,12.69
2018-11-02T15:32:03.439Z,13.00
2018-11-02T15:34:32.863Z,12.47
2018-11-02T15:37:03.351Z,12.54
2018-11-02T15:39:38.607Z,12.49
2018-11-02T15:42:08.963Z,12.56
2018-11-02T15:44:41.625Z,12.58
2018-11-02T15:47:10.825Z,12.61
2018-11-02T15:49:52.584Z,12.54
2018-11-02T15:52:22.039Z,12.42
2018-11-02T15:54:52.427Z,12.35
2018-11-02T15:57:21.457Z,12.39
2018-11-02T15:59:52.416Z,12.39
2018-11-02T16:02:22.443Z,12.30
2018-11-02T16:04:52.487Z,12.25
2018-11-02T16:07:22.519Z,12.24
2018-11-02T16:09:54.715Z,12.24
2018-11-02T16:12:26.887Z,12.30
2018-11-02T16:14:57.619Z,12.26
2018-11-02T16:17:27.858Z,12.23
2018-11-02T16:19:58.874Z,12.12
2018-11-02T16:22:48.231Z,12.01
2018-11-02T16:25:18.198Z,11.89
2018-11-02T16:27:49.132Z,11.77
2018-11-02T16:30:19.426Z,11.78
2018-11-02T16:32:53.119Z,11.81
2018-11-02T16:35:22.024Z,11.71
2018-11-02T16:37:56.852Z,11.63
2018-11-02T16:40:26.893Z,11.57
2018-11-02T16:42:57.853Z,11.55
2018-11-02T16:45:32.672Z,11.47
2018-11-02T16:48:02.863Z,11.38
2018-11-02T16:50:33.979Z,11.32
2018-11-02T16:53:02.823Z,11.17
2018-11-02T16:55:46.227Z,11.25
2018-11-02T16:58:17.197Z,11.14
2018-11-02T17:00:55.704Z,11.18
2018-11-02T17:03:24.685Z,11.05
2018-11-02T17:05:57.883Z,11.03
2018-11-02T17:08:32.428Z,10.97
2018-11-02T17:11:06.864Z,10.99
2018-11-02T17:13:35.910Z,10.71
2018-11-02T17:16:10.937Z,10.80
2018-11-02T17:18:40.361Z,10.89
2018-11-02T17:21:11.697Z,10.84
2018-11-02T17:23:41.153Z,10.66
2018-11-02T17:26:11.612Z,10.72
2018-11-02T17:28:44.802Z,10.66
2018-11-02T17:31:19.920Z,10.51
2018-11-02T17:36:44.998Z,10.44
2018-11-02T17:39:25.867Z,10.33
2018-11-02T17:41:57.277Z,10.46
2018-11-02T17:44:26.713Z,10.39
2018-11-02T17:47:05.947Z,10.43
2018-11-02T17:49:44.615Z,10.38
2018-11-02T17:55:20.287Z,10.05
2018-11-02T17:57:53.208Z,10.08
2018-11-02T18:00:23.159Z,10.10
2018-11-02T18:03:00.324Z,10.05
2018-11-02T18:05:31.370Z,10.05
2018-11-02T18:08:16.701Z,10.10
2018-11-02T18:10:47.656Z,9.84
2018-11-02T18:13:17.600Z,9.71
2018-11-02T18:15:51.391Z,9.77
2018-11-02T18:18:25.750Z,9.68
2018-11-02T18:20:56.645Z,9.68
2018-11-02T18:23:27.568Z,9.67
2018-11-02T18:25:56.898Z,9.74
2018-11-02T18:28:26.555Z,9.54
2018-11-02T18:30:58.920Z,9.65
2018-11-02T18:33:31.244Z,9.55
2018-11-02T18:36:01.332Z,9.41
2018-11-02T18:38:30.372Z,9.48
2018-11-02T18:40:59.444Z,9.46
2018-11-02T18:43:34.310Z,9.39
2018-11-02T18:46:05.465Z,9.54
2018-11-02T18:48:36.358Z,9.53
2018-11-02T18:51:17.760Z,9.44
2018-11-02T18:56:44.375Z,9.52
2018-11-02T18:59:14.846Z,9.35
2018-11-02T19:01:45.782Z,9.39
2018-11-02T19:04:37.238Z,9.47
2018-11-02T19:07:22.328Z,9.19
2018-11-02T19:09:52.391Z,9.15
2018-11-02T19:12:22.266Z,9.24
2018-11-02T19:14:51.271Z,9.25
2018-11-02T19:17:22.216Z,9.12
2018-11-02T19:19:53.339Z,8.97
2018-11-02T19:22:22.236Z,8.98
2018-11-02T19:24:57.159Z,8.93
2018-11-02T19:27:28.173Z,9.02
2018-11-02T19:30:10.422Z,8.85
2018-11-02T19:32:40.399Z,8.80
2018-11-02T19:35:14.023Z,8.61
2018-11-02T19:37:47.417Z,8.60
2018-11-02T19:40:26.656Z,8.52
2018-11-02T19:42:56.606Z,8.41
2018-11-02T19:45:28.595Z,8.37
2018-11-02T19:48:04.900Z,8.32
2018-11-02T19:50:37.718Z,8.43
2018-11-02T19:53:08.673Z,8.37
2018-11-02T19:55:38.685Z,8.26
2018-11-02T19:58:12.190Z,8.42
2018-11-02T20:00:45.523Z,8.39
2018-11-02T20:03:17.435Z,8.32
2018-11-02T20:05:56.878Z,8.33
2018-11-02T20:08:26.783Z,8.25
2018-11-02T20:10:55.745Z,8.13
2018-11-02T20:13:34.378Z,8.18
2018-11-02T20:16:03.476Z,8.15
2018-11-02T20:18:36.942Z,8.03
2018-11-02T20:21:13.542Z,8.09
2018-11-02T20:23:43.009Z,8.00
2018-11-02T20:26:15.311Z,7.92
2018-11-02T20:28:51.822Z,7.95
2018-11-02T20:31:22.190Z,8.15
2018-11-02T20:33:57.148Z,7.98
2018-11-02T20:36:27.054Z,7.98
2018-11-02T20:38:58.185Z,7.99
2018-11-02T20:41:37.728Z,8.08
2018-11-02T20:44:08.166Z,8.04
2018-11-02T20:46:37.212Z,8.05
2018-11-02T20:49:07.236Z,7.99
2018-11-02T20:51:47.419Z,7.89
2018-11-02T20:54:16.346Z,7.87
2018-11-02T20:56:52.620Z,7.96
2018-11-02T20:59:21.581Z,8.00
2018-11-02T21:01:50.520Z,7.70
2018-11-02T21:04:38.196Z,7.65
2018-11-02T21:07:23.344Z,7.53
2018-11-02T21:09:55.731Z,7.60
2018-11-02T21:12:24.697Z,7.50
2018-11-02T21:15:04.986Z,7.57
2018-11-02T21:17:33.704Z,7.54
2018-11-02T21:20:02.700Z,7.45
2018-11-02T21:22:37.110Z,7.56
2018-11-02T21:25:08.733Z,7.53
2018-11-02T21:27:37.852Z,7.50
2018-11-02T21:30:11.752Z,7.55
2018-11-02T21:32:44.743Z,7.57
2018-11-02T21:35:17.442Z,7.39
2018-11-02T21:37:58.556Z,7.61
2018-11-02T21:40:27.597Z,7.46
2018-11-02T21:43:01.668Z,7.39
2018-11-02T21:45:32.578Z,7.41
2018-11-02T21:48:14.304Z,7.32
2018-11-02T21:51:02.138Z,7.30
2018-11-02T21:53:35.226Z,7.27
2018-11-02T21:59:02.733Z,7.36
2018-11-02T22:01:36.366Z,7.26
2018-11-02T22:04:09.207Z,7.18
2018-11-02T22:06:43.863Z,7.18
2018-11-02T22:09:23.338Z,7.32
2018-11-02T22:11:52.246Z,7.31
2018-11-02T22:14:33.625Z,7.30
2018-11-02T22:17:02.549Z,7.26
2018-11-02T22:19:34.935Z,7.12
2018-11-02T22:25:08.410Z,7.17
2018-11-02T22:27:56.504Z,7.12
2018-11-02T22:30:31.548Z,7.19
2018-11-02T22:33:00.555Z,7.17
2018-11-02T22:35:29.504Z,7.04
2018-11-02T22:37:59.474Z,7.05
2018-11-02T22:40:35.107Z,7.07
2018-11-02T22:43:04.084Z,6.95
2018-11-02T22:45:37.135Z,6.84
2018-11-02T22:48:11.565Z,7.10
2018-11-02T22:50:42.580Z,7.04
2018-11-02T22:53:14.621Z,6.90
2018-11-02T22:55:56.508Z,6.86
2018-11-02T22:58:32.896Z,6.94
2018-11-02T23:04:01.185Z,7.02
2018-11-02T23:06:30.454Z,6.82
2018-11-02T23:08:59.453Z,6.82
2018-11-02T23:14:35.516Z,6.81
2018-11-02T23:17:04.501Z,6.67
2018-11-02T23:19:33.370Z,6.79
2018-11-02T23:22:02.408Z,6.90
2018-11-02T23:24:39.914Z,6.89
2018-11-02T23:30:11.211Z,6.68
2018-11-02T23:32:40.226Z,6.59
2018-11-02T23:35:09.537Z,6.57
2018-11-02T23:38:02.101Z,6.62
2018-11-02T23:40:31.046Z,6.68
2018-11-02T23:43:00.232Z,6.55
2018-11-02T23:45:29.108Z,6.57
2018-11-02T23:48:03.758Z,6.64
2018-11-02T23:50:32.646Z,6.53
2018-11-02T23:53:02.864Z,6.64
2018-11-02T23:55:48.277Z,6.64
2018-11-02T23:58:17.274Z,6.53
